sensor_id;sensor_type;location;lat;lon;timestamp;temperature;humidity
75153;HTU21D;63734;45.218;36.708;2023-02-23T00:00:09;2.00;83.52
75153;HTU21D;63734;45.218;36.708;2023-02-23T00:02:54;1.88;82.31
75153;HTU21D;63734;45.218;36.708;2023-02-23T00:05:27;1.82;81.84
75153;HTU21D;63734;45.218;36.708;2023-02-23T00:07:54;1.76;81.63
75153;HTU21D;63734;45.218;36.708;2023-02-23T00:10:20;1.68;81.91
75153;HTU21D;63734;45.218;36.708;2023-02-23T00:12:49;1.65;82.62
75153;HTU21D;63734;45.218;36.708;2023-02-23T00:15:16;1.64;82.81
75153;HTU21D;63734;45.218;36.708;2023-02-23T00:17:42;1.61;82.92
75153;HTU21D;63734;45.218;36.708;2023-02-23T00:20:10;1.58;82.62
75153;HTU21D;63734;45.218;36.708;2023-02-23T00:22:38;1.54;81.53
75153;HTU21D;63734;45.218;36.708;2023-02-23T00:25:08;1.50;80.46
75153;HTU21D;63734;45.218;36.708;2023-02-23T00:27:37;1.48;79.98
75153;HTU21D;63734;45.218;36.708;2023-02-23T00:30:13;1.46;79.72
75153;HTU21D;63734;45.218;36.708;2023-02-23T00:32:39;1.45;79.91
75153;HTU21D;63734;45.218;36.708;2023-02-23T00:35:06;1.42;80.32
75153;HTU21D;63734;45.218;36.708;2023-02-23T00:37:47;1.42;80.22
75153;HTU21D;63734;45.218;36.708;2023-02-23T00:40:14;1.41;80.43
75153;HTU21D;63734;45.218;36.708;2023-02-23T00:42:45;1.41;80.50
75153;HTU21D;63734;45.218;36.708;2023-02-23T00:45:12;1.40;80.75
75153;HTU21D;63734;45.218;36.708;2023-02-23T00:47:43;1.38;80.73
75153;HTU21D;63734;45.218;36.708;2023-02-23T00:50:14;1.34;80.27
75153;HTU21D;63734;45.218;36.708;2023-02-23T00:52:41;1.31;80.46
75153;HTU21D;63734;45.218;36.708;2023-02-23T00:55:12;1.25;79.66
75153;HTU21D;63734;45.218;36.708;2023-02-23T00:57:39;1.24;79.62
75153;HTU21D;63734;45.218;36.708;2023-02-23T01:00:07;1.23;79.33
75153;HTU21D;63734;45.218;36.708;2023-02-23T01:02:46;1.23;79.49
75153;HTU21D;63734;45.218;36.708;2023-02-23T01:05:13;1.22;79.88
75153;HTU21D;63734;45.218;36.708;2023-02-23T01:07:39;1.22;79.92
75153;HTU21D;63734;45.218;36.708;2023-02-23T01:10:06;1.21;79.98
75153;HTU21D;63734;45.218;36.708;2023-02-23T01:12:46;1.19;79.11
75153;HTU21D;63734;45.218;36.708;2023-02-23T01:15:12;1.17;78.79
75153;HTU21D;63734;45.218;36.708;2023-02-23T01:17:38;1.19;78.75
75153;HTU21D;63734;45.218;36.708;2023-02-23T01:20:05;1.17;79.03
75153;HTU21D;63734;45.218;36.708;2023-02-23T01:22:52;1.17;78.35
75153;HTU21D;63734;45.218;36.708;2023-02-23T01:25:18;1.18;78.32
75153;HTU21D;63734;45.218;36.708;2023-02-23T01:27:44;1.18;78.37
75153;HTU21D;63734;45.218;36.708;2023-02-23T01:30:12;1.19;78.33
75153;HTU21D;63734;45.218;36.708;2023-02-23T01:32:39;1.17;78.01
75153;HTU21D;63734;45.218;36.708;2023-02-23T01:35:10;1.17;78.18
75153;HTU21D;63734;45.218;36.708;2023-02-23T01:37:39;1.13;77.51
75153;HTU21D;63734;45.218;36.708;2023-02-23T01:40:15;1.09;76.63
75153;HTU21D;63734;45.218;36.708;2023-02-23T01:42:44;1.07;77.05
75153;HTU21D;63734;45.218;36.708;2023-02-23T01:45:32;1.07;77.62
75153;HTU21D;63734;45.218;36.708;2023-02-23T01:48:14;1.08;77.27
75153;HTU21D;63734;45.218;36.708;2023-02-23T01:51:01;1.05;77.22
75153;HTU21D;63734;45.218;36.708;2023-02-23T01:53:31;1.02;76.76
75153;HTU21D;63734;45.218;36.708;2023-02-23T01:56:04;1.01;76.70
75153;HTU21D;63734;45.218;36.708;2023-02-23T01:58:44;0.98;76.22
75153;HTU21D;63734;45.218;36.708;2023-02-23T02:01:11;0.97;75.79
75153;HTU21D;63734;45.218;36.708;2023-02-23T02:03:41;0.93;75.91
75153;HTU21D;63734;45.218;36.708;2023-02-23T02:06:12;0.89;76.42
75153;HTU21D;63734;45.218;36.708;2023-02-23T02:08:44;0.86;76.37
75153;HTU21D;63734;45.218;36.708;2023-02-23T02:11:12;0.86;75.21
75153;HTU21D;63734;45.218;36.708;2023-02-23T02:16:41;0.79;75.31
75153;HTU21D;63734;45.218;36.708;2023-02-23T02:34:44;0.68;75.99
75153;HTU21D;63734;45.218;36.708;2023-02-23T02:45:27;0.60;75.98
75153;HTU21D;63734;45.218;36.708;2023-02-23T02:51:00;0.63;77.16
75153;HTU21D;63734;45.218;36.708;2023-02-23T02:56:17;0.60;78.48
75153;HTU21D;63734;45.218;36.708;2023-02-23T02:58:45;0.61;78.75
75153;HTU21D;63734;45.218;36.708;2023-02-23T03:01:17;0.61;78.23
75153;HTU21D;63734;45.218;36.708;2023-02-23T03:04:20;0.60;77.29
75153;HTU21D;63734;45.218;36.708;2023-02-23T03:11:01;0.60;73.70
75153;HTU21D;63734;45.218;36.708;2023-02-23T03:14:27;0.59;72.79
75153;HTU21D;63734;45.218;36.708;2023-02-23T03:29:12;0.69;75.02
75153;HTU21D;63734;45.218;36.708;2023-02-23T03:35:08;0.71;75.21
75153;HTU21D;63734;45.218;36.708;2023-02-23T03:38:09;0.71;75.11
75153;HTU21D;63734;45.218;36.708;2023-02-23T03:40:55;0.74;76.81
75153;HTU21D;63734;45.218;36.708;2023-02-23T03:43:47;0.76;78.46
75153;HTU21D;63734;45.218;36.708;2023-02-23T03:46:34;0.75;78.88
75153;HTU21D;63734;45.218;36.708;2023-02-23T03:49:19;0.73;79.02
75153;HTU21D;63734;45.218;36.708;2023-02-23T03:52:16;0.74;79.23
75153;HTU21D;63734;45.218;36.708;2023-02-23T03:55:07;0.72;79.53
75153;HTU21D;63734;45.218;36.708;2023-02-23T03:57:55;0.72;79.52
75153;HTU21D;63734;45.218;36.708;2023-02-23T04:00:47;0.68;79.33
75153;HTU21D;63734;45.218;36.708;2023-02-23T04:03:35;0.68;79.37
75153;HTU21D;63734;45.218;36.708;2023-02-23T04:06:24;0.68;79.55
75153;HTU21D;63734;45.218;36.708;2023-02-23T04:09:09;0.65;79.11
75153;HTU21D;63734;45.218;36.708;2023-02-23T04:12:01;0.67;79.21
75153;HTU21D;63734;45.218;36.708;2023-02-23T04:17:20;0.62;78.33
75153;HTU21D;63734;45.218;36.708;2023-02-23T04:19:50;0.60;78.24
75153;HTU21D;63734;45.218;36.708;2023-02-23T04:22:17;0.63;78.53
75153;HTU21D;63734;45.218;36.708;2023-02-23T04:24:43;0.65;78.96
75153;HTU21D;63734;45.218;36.708;2023-02-23T04:27:11;0.66;78.99
75153;HTU21D;63734;45.218;36.708;2023-02-23T04:29:38;0.63;78.72
75153;HTU21D;63734;45.218;36.708;2023-02-23T04:32:05;0.64;78.73
75153;HTU21D;63734;45.218;36.708;2023-02-23T04:34:31;0.66;78.82
75153;HTU21D;63734;45.218;36.708;2023-02-23T04:36:57;0.67;78.51
75153;HTU21D;63734;45.218;36.708;2023-02-23T04:39:23;0.67;78.03
75153;HTU21D;63734;45.218;36.708;2023-02-23T04:41:49;0.72;77.95
75153;HTU21D;63734;45.218;36.708;2023-02-23T04:44:16;0.73;77.94
75153;HTU21D;63734;45.218;36.708;2023-02-23T04:46:42;0.74;77.82
75153;HTU21D;63734;45.218;36.708;2023-02-23T04:49:08;0.73;77.59
75153;HTU21D;63734;45.218;36.708;2023-02-23T04:51:34;0.72;76.77
75153;HTU21D;63734;45.218;36.708;2023-02-23T04:54:02;0.73;76.94
75153;HTU21D;63734;45.218;36.708;2023-02-23T04:56:28;0.74;76.64
75153;HTU21D;63734;45.218;36.708;2023-02-23T04:58:55;0.73;76.23
75153;HTU21D;63734;45.218;36.708;2023-02-23T05:01:21;0.74;75.18
75153;HTU21D;63734;45.218;36.708;2023-02-23T05:03:48;0.76;75.94
75153;HTU21D;63734;45.218;36.708;2023-02-23T05:06:18;0.80;77.15
75153;HTU21D;63734;45.218;36.708;2023-02-23T05:08:44;0.84;77.96
75153;HTU21D;63734;45.218;36.708;2023-02-23T05:11:11;0.82;78.95
75153;HTU21D;63734;45.218;36.708;2023-02-23T05:13:37;0.78;78.64
75153;HTU21D;63734;45.218;36.708;2023-02-23T05:16:04;0.77;79.28
75153;HTU21D;63734;45.218;36.708;2023-02-23T05:18:30;0.71;79.17
75153;HTU21D;63734;45.218;36.708;2023-02-23T05:21:05;0.69;80.17
75153;HTU21D;63734;45.218;36.708;2023-02-23T05:23:33;0.67;81.01
75153;HTU21D;63734;45.218;36.708;2023-02-23T05:26:05;0.64;81.36
75153;HTU21D;63734;45.218;36.708;2023-02-23T05:28:33;0.59;81.10
75153;HTU21D;63734;45.218;36.708;2023-02-23T05:31:00;0.49;81.59
75153;HTU21D;63734;45.218;36.708;2023-02-23T05:33:29;0.40;81.81
75153;HTU21D;63734;45.218;36.708;2023-02-23T05:35:55;0.20;82.50
75153;HTU21D;63734;45.218;36.708;2023-02-23T05:38:22;0.10;82.92
75153;HTU21D;63734;45.218;36.708;2023-02-23T05:40:48;0.06;83.00
75153;HTU21D;63734;45.218;36.708;2023-02-23T05:43:14;0.07;83.54
75153;HTU21D;63734;45.218;36.708;2023-02-23T05:45:43;0.05;83.78
75153;HTU21D;63734;45.218;36.708;2023-02-23T05:48:10;0.02;83.95
75153;HTU21D;63734;45.218;36.708;2023-02-23T05:50:37;-0.00;83.98
75153;HTU21D;63734;45.218;36.708;2023-02-23T05:53:03;-0.01;83.84
75153;HTU21D;63734;45.218;36.708;2023-02-23T05:55:29;-0.03;83.88
75153;HTU21D;63734;45.218;36.708;2023-02-23T05:57:55;-0.02;84.19
75153;HTU21D;63734;45.218;36.708;2023-02-23T06:00:22;-0.05;84.29
75153;HTU21D;63734;45.218;36.708;2023-02-23T06:02:48;-0.09;84.27
75153;HTU21D;63734;45.218;36.708;2023-02-23T06:05:17;-0.11;84.23
75153;HTU21D;63734;45.218;36.708;2023-02-23T06:07:43;-0.11;84.14
75153;HTU21D;63734;45.218;36.708;2023-02-23T06:10:10;-0.09;84.25
75153;HTU21D;63734;45.218;36.708;2023-02-23T06:12:36;-0.07;83.84
75153;HTU21D;63734;45.218;36.708;2023-02-23T06:15:02;-0.01;83.67
75153;HTU21D;63734;45.218;36.708;2023-02-23T06:17:29;-0.01;83.41
75153;HTU21D;63734;45.218;36.708;2023-02-23T06:19:55;0.06;83.16
75153;HTU21D;63734;45.218;36.708;2023-02-23T06:22:21;0.06;83.04
75153;HTU21D;63734;45.218;36.708;2023-02-23T06:24:47;0.14;82.86
75153;HTU21D;63734;45.218;36.708;2023-02-23T06:27:14;0.15;82.01
75153;HTU21D;63734;45.218;36.708;2023-02-23T06:29:40;0.20;81.88
75153;HTU21D;63734;45.218;36.708;2023-02-23T06:32:06;0.29;81.80
75153;HTU21D;63734;45.218;36.708;2023-02-23T06:34:32;0.44;81.42
75153;HTU21D;63734;45.218;36.708;2023-02-23T06:36:59;0.71;81.08
75153;HTU21D;63734;45.218;36.708;2023-02-23T06:39:25;0.80;80.46
75153;HTU21D;63734;45.218;36.708;2023-02-23T06:41:51;0.78;79.49
75153;HTU21D;63734;45.218;36.708;2023-02-23T06:44:17;0.78;79.59
75153;HTU21D;63734;45.218;36.708;2023-02-23T06:46:43;0.88;79.25
75153;HTU21D;63734;45.218;36.708;2023-02-23T06:49:10;0.92;78.98
75153;HTU21D;63734;45.218;36.708;2023-02-23T06:51:37;0.94;77.83
75153;HTU21D;63734;45.218;36.708;2023-02-23T06:54:03;0.76;77.18
75153;HTU21D;63734;45.218;36.708;2023-02-23T06:56:29;0.62;77.31
75153;HTU21D;63734;45.218;36.708;2023-02-23T06:58:55;0.53;77.60
75153;HTU21D;63734;45.218;36.708;2023-02-23T07:01:21;0.55;77.37
75153;HTU21D;63734;45.218;36.708;2023-02-23T07:03:47;0.55;77.23
75153;HTU21D;63734;45.218;36.708;2023-02-23T07:06:13;0.51;76.94
75153;HTU21D;63734;45.218;36.708;2023-02-23T07:08:39;0.60;76.86
75153;HTU21D;63734;45.218;36.708;2023-02-23T07:11:10;0.75;76.24
75153;HTU21D;63734;45.218;36.708;2023-02-23T07:13:38;0.96;76.15
75153;HTU21D;63734;45.218;36.708;2023-02-23T07:16:05;1.33;75.33
75153;HTU21D;63734;45.218;36.708;2023-02-23T07:18:31;1.66;75.03
75153;HTU21D;63734;45.218;36.708;2023-02-23T07:20:58;1.92;74.16
75153;HTU21D;63734;45.218;36.708;2023-02-23T07:23:24;2.14;74.42
75153;HTU21D;63734;45.218;36.708;2023-02-23T07:25:52;2.20;72.41
75153;HTU21D;63734;45.218;36.708;2023-02-23T07:28:19;2.01;73.19
75153;HTU21D;63734;45.218;36.708;2023-02-23T07:30:46;1.85;72.43
75153;HTU21D;63734;45.218;36.708;2023-02-23T07:33:12;1.72;72.96
75153;HTU21D;63734;45.218;36.708;2023-02-23T07:35:38;1.64;72.80
75153;HTU21D;63734;45.218;36.708;2023-02-23T07:38:04;1.53;71.93
75153;HTU21D;63734;45.218;36.708;2023-02-23T07:40:32;1.39;71.98
75153;HTU21D;63734;45.218;36.708;2023-02-23T07:42:58;1.29;72.64
75153;HTU21D;63734;45.218;36.708;2023-02-23T07:45:24;1.18;72.66
75153;HTU21D;63734;45.218;36.708;2023-02-23T07:47:50;1.17;73.37
75153;HTU21D;63734;45.218;36.708;2023-02-23T07:50:16;1.20;73.66
75153;HTU21D;63734;45.218;36.708;2023-02-23T07:52:43;1.17;73.25
75153;HTU21D;63734;45.218;36.708;2023-02-23T07:55:09;1.38;72.95
75153;HTU21D;63734;45.218;36.708;2023-02-23T07:57:36;1.76;73.32
75153;HTU21D;63734;45.218;36.708;2023-02-23T08:00:05;1.86;71.45
75153;HTU21D;63734;45.218;36.708;2023-02-23T08:02:38;1.68;71.09
75153;HTU21D;63734;45.218;36.708;2023-02-23T08:05:04;1.86;71.81
75153;HTU21D;63734;45.218;36.708;2023-02-23T08:07:32;1.96;70.77
75153;HTU21D;63734;45.218;36.708;2023-02-23T08:09:58;1.86;70.32
75153;HTU21D;63734;45.218;36.708;2023-02-23T08:12:25;1.85;70.74
75153;HTU21D;63734;45.218;36.708;2023-02-23T08:14:51;1.70;70.19
75153;HTU21D;63734;45.218;36.708;2023-02-23T08:17:18;1.58;70.19
75153;HTU21D;63734;45.218;36.708;2023-02-23T08:19:44;1.50;71.12
75153;HTU21D;63734;45.218;36.708;2023-02-23T08:22:11;1.55;71.42
75153;HTU21D;63734;45.218;36.708;2023-02-23T08:24:37;1.42;70.19
75153;HTU21D;63734;45.218;36.708;2023-02-23T08:27:03;1.36;70.63
75153;HTU21D;63734;45.218;36.708;2023-02-23T08:29:29;1.32;70.60
75153;HTU21D;63734;45.218;36.708;2023-02-23T08:31:56;1.20;70.47
75153;HTU21D;63734;45.218;36.708;2023-02-23T08:34:22;1.36;71.25
75153;HTU21D;63734;45.218;36.708;2023-02-23T08:36:50;1.65;70.81
75153;HTU21D;63734;45.218;36.708;2023-02-23T08:39:16;1.71;70.10
75153;HTU21D;63734;45.218;36.708;2023-02-23T08:41:42;1.51;69.57
75153;HTU21D;63734;45.218;36.708;2023-02-23T08:44:08;1.34;70.06
75153;HTU21D;63734;45.218;36.708;2023-02-23T08:46:34;1.32;70.42
75153;HTU21D;63734;45.218;36.708;2023-02-23T08:49:00;1.24;70.30
75153;HTU21D;63734;45.218;36.708;2023-02-23T08:51:26;1.25;70.07
75153;HTU21D;63734;45.218;36.708;2023-02-23T08:53:52;1.13;70.03
75153;HTU21D;63734;45.218;36.708;2023-02-23T08:56:18;1.06;69.71
75153;HTU21D;63734;45.218;36.708;2023-02-23T08:58:44;1.04;69.87
75153;HTU21D;63734;45.218;36.708;2023-02-23T09:01:18;1.06;69.69
75153;HTU21D;63734;45.218;36.708;2023-02-23T09:03:47;1.20;69.84
75153;HTU21D;63734;45.218;36.708;2023-02-23T09:06:17;1.35;69.96
75153;HTU21D;63734;45.218;36.708;2023-02-23T09:08:43;1.21;68.33
75153;HTU21D;63734;45.218;36.708;2023-02-23T09:11:10;0.97;68.61
75153;HTU21D;63734;45.218;36.708;2023-02-23T09:13:36;0.99;69.07
75153;HTU21D;63734;45.218;36.708;2023-02-23T09:16:04;1.10;68.71
75153;HTU21D;63734;45.218;36.708;2023-02-23T09:18:32;1.26;68.68
75153;HTU21D;63734;45.218;36.708;2023-02-23T09:20:58;1.48;68.42
75153;HTU21D;63734;45.218;36.708;2023-02-23T09:23:32;1.68;68.23
75153;HTU21D;63734;45.218;36.708;2023-02-23T09:26:07;1.81;68.04
75153;HTU21D;63734;45.218;36.708;2023-02-23T09:28:35;1.63;66.70
75153;HTU21D;63734;45.218;36.708;2023-02-23T09:31:07;1.33;66.90
75153;HTU21D;63734;45.218;36.708;2023-02-23T09:33:34;1.28;67.65
75153;HTU21D;63734;45.218;36.708;2023-02-23T09:36:07;1.41;67.55
75153;HTU21D;63734;45.218;36.708;2023-02-23T09:38:33;1.42;66.98
75153;HTU21D;63734;45.218;36.708;2023-02-23T09:46:59;1.16;65.64
75153;HTU21D;63734;45.218;36.708;2023-02-23T09:49:32;1.18;66.02
75153;HTU21D;63734;45.218;36.708;2023-02-23T09:52:00;1.23;66.11
75153;HTU21D;63734;45.218;36.708;2023-02-23T09:54:32;1.25;65.46
75153;HTU21D;63734;45.218;36.708;2023-02-23T09:57:05;1.31;65.69
75153;HTU21D;63734;45.218;36.708;2023-02-23T09:59:35;1.33;65.80
75153;HTU21D;63734;45.218;36.708;2023-02-23T10:04:45;1.27;65.48
75153;HTU21D;63734;45.218;36.708;2023-02-23T10:20:59;1.11;65.37
75153;HTU21D;63734;45.218;36.708;2023-02-23T10:23:35;1.07;65.42
75153;HTU21D;63734;45.218;36.708;2023-02-23T10:26:04;1.02;65.63
75153;HTU21D;63734;45.218;36.708;2023-02-23T10:28:35;1.01;65.42
75153;HTU21D;63734;45.218;36.708;2023-02-23T10:31:16;1.04;65.09
75153;HTU21D;63734;45.218;36.708;2023-02-23T10:33:43;0.97;64.53
75153;HTU21D;63734;45.218;36.708;2023-02-23T10:36:17;0.94;64.75
75153;HTU21D;63734;45.218;36.708;2023-02-23T10:38:46;0.91;64.08
75153;HTU21D;63734;45.218;36.708;2023-02-23T10:41:12;0.89;64.56
75153;HTU21D;63734;45.218;36.708;2023-02-23T10:43:39;0.88;63.92
75153;HTU21D;63734;45.218;36.708;2023-02-23T10:46:06;0.81;64.23
75153;HTU21D;63734;45.218;36.708;2023-02-23T10:48:40;0.78;64.03
75153;HTU21D;63734;45.218;36.708;2023-02-23T10:51:24;0.74;64.34
75153;HTU21D;63734;45.218;36.708;2023-02-23T10:53:52;0.72;64.30
75153;HTU21D;63734;45.218;36.708;2023-02-23T10:56:20;0.65;64.40
75153;HTU21D;63734;45.218;36.708;2023-02-23T10:58:53;0.62;64.79
75153;HTU21D;63734;45.218;36.708;2023-02-23T11:01:38;0.59;64.79
75153;HTU21D;63734;45.218;36.708;2023-02-23T11:04:28;0.55;64.83
75153;HTU21D;63734;45.218;36.708;2023-02-23T11:09:35;0.58;64.54
75153;HTU21D;63734;45.218;36.708;2023-02-23T11:12:25;0.59;64.79
75153;HTU21D;63734;45.218;36.708;2023-02-23T11:15:26;0.57;64.71
75153;HTU21D;63734;45.218;36.708;2023-02-23T11:17:56;0.49;64.92
75153;HTU21D;63734;45.218;36.708;2023-02-23T11:20:33;0.42;64.13
75153;HTU21D;63734;45.218;36.708;2023-02-23T11:23:15;0.37;64.67
75153;HTU21D;63734;45.218;36.708;2023-02-23T11:25:43;0.45;65.23
75153;HTU21D;63734;45.218;36.708;2023-02-23T11:28:18;0.54;65.34
75153;HTU21D;63734;45.218;36.708;2023-02-23T11:30:46;0.51;65.12
75153;HTU21D;63734;45.218;36.708;2023-02-23T11:33:16;0.52;65.17
75153;HTU21D;63734;45.218;36.708;2023-02-23T11:35:44;0.46;64.99
75153;HTU21D;63734;45.218;36.708;2023-02-23T11:38:28;0.42;65.11
75153;HTU21D;63734;45.218;36.708;2023-02-23T11:40:59;0.46;65.27
75153;HTU21D;63734;45.218;36.708;2023-02-23T11:43:29;0.47;65.22
75153;HTU21D;63734;45.218;36.708;2023-02-23T11:45:58;0.42;65.08
75153;HTU21D;63734;45.218;36.708;2023-02-23T11:48:41;0.35;64.59
75153;HTU21D;63734;45.218;36.708;2023-02-23T11:51:09;0.33;65.10
75153;HTU21D;63734;45.218;36.708;2023-02-23T11:53:42;0.28;65.56
75153;HTU21D;63734;45.218;36.708;2023-02-23T11:56:09;0.20;65.30
75153;HTU21D;63734;45.218;36.708;2023-02-23T11:58:52;0.18;65.77
75153;HTU21D;63734;45.218;36.708;2023-02-23T12:01:40;0.14;65.17
75153;HTU21D;63734;45.218;36.708;2023-02-23T12:06:49;-0.00;66.06
75153;HTU21D;63734;45.218;36.708;2023-02-23T12:09:28;-0.03;66.36
75153;HTU21D;63734;45.218;36.708;2023-02-23T12:12:09;-0.00;66.51
75153;HTU21D;63734;45.218;36.708;2023-02-23T12:14:40;-0.09;66.21
75153;HTU21D;63734;45.218;36.708;2023-02-23T12:17:17;-0.09;66.40
75153;HTU21D;63734;45.218;36.708;2023-02-23T12:19:48;-0.09;66.58
75153;HTU21D;63734;45.218;36.708;2023-02-23T12:22:38;-0.14;66.32
75153;HTU21D;63734;45.218;36.708;2023-02-23T12:33:38;-0.30;67.07
75153;HTU21D;63734;45.218;36.708;2023-02-23T12:36:39;-0.31;66.95
75153;HTU21D;63734;45.218;36.708;2023-02-23T12:44:29;-0.36;67.31
75153;HTU21D;63734;45.218;36.708;2023-02-23T12:47:03;-0.26;67.41
75153;HTU21D;63734;45.218;36.708;2023-02-23T12:49:45;-0.29;67.24
75153;HTU21D;63734;45.218;36.708;2023-02-23T12:52:24;-0.26;67.71
75153;HTU21D;63734;45.218;36.708;2023-02-23T12:54:52;-0.21;67.76
75153;HTU21D;63734;45.218;36.708;2023-02-23T12:57:39;-0.27;67.40
75153;HTU21D;63734;45.218;36.708;2023-02-23T13:13:58;-0.50;67.80
75153;HTU21D;63734;45.218;36.708;2023-02-23T13:16:48;-0.50;67.71
75153;HTU21D;63734;45.218;36.708;2023-02-23T13:19:28;-0.52;67.82
75153;HTU21D;63734;45.218;36.708;2023-02-23T13:24:47;-0.59;68.03
75153;HTU21D;63734;45.218;36.708;2023-02-23T13:29:48;-0.67;68.75
75153;HTU21D;63734;45.218;36.708;2023-02-23T13:32:18;-0.67;68.91
75153;HTU21D;63734;45.218;36.708;2023-02-23T13:35:03;-0.70;68.95
75153;HTU21D;63734;45.218;36.708;2023-02-23T13:37:55;-0.74;69.02
75153;HTU21D;63734;45.218;36.708;2023-02-23T13:46:16;-0.71;68.94
75153;HTU21D;63734;45.218;36.708;2023-02-23T13:49:01;-0.81;68.94
75153;HTU21D;63734;45.218;36.708;2023-02-23T13:51:51;-0.85;69.15
75153;HTU21D;63734;45.218;36.708;2023-02-23T13:54:33;-0.84;69.39
75153;HTU21D;63734;45.218;36.708;2023-02-23T13:57:02;-0.91;69.09
75153;HTU21D;63734;45.218;36.708;2023-02-23T13:59:43;-0.93;69.40
75153;HTU21D;63734;45.218;36.708;2023-02-23T14:07:44;-1.06;69.86
75153;HTU21D;63734;45.218;36.708;2023-02-23T14:10:19;-1.19;69.58
75153;HTU21D;63734;45.218;36.708;2023-02-23T14:25:49;-1.21;70.59
75153;HTU21D;63734;45.218;36.708;2023-02-23T14:33:51;-1.19;71.06
75153;HTU21D;63734;45.218;36.708;2023-02-23T14:41:30;-1.28;71.24
75153;HTU21D;63734;45.218;36.708;2023-02-23T14:44:30;-1.34;71.06
75153;HTU21D;63734;45.218;36.708;2023-02-23T14:47:19;-1.40;71.07
75153;HTU21D;63734;45.218;36.708;2023-02-23T14:49:50;-1.45;71.00
75153;HTU21D;63734;45.218;36.708;2023-02-23T14:57:40;-1.62;71.66
75153;HTU21D;63734;45.218;36.708;2023-02-23T15:00:16;-1.71;71.20
75153;HTU21D;63734;45.218;36.708;2023-02-23T15:05:23;-1.76;71.85
75153;HTU21D;63734;45.218;36.708;2023-02-23T15:07:50;-1.80;71.74
75153;HTU21D;63734;45.218;36.708;2023-02-23T15:10:38;-1.85;71.76
75153;HTU21D;63734;45.218;36.708;2023-02-23T15:13:49;-1.84;71.92
75153;HTU21D;63734;45.218;36.708;2023-02-23T15:16:23;-1.85;72.12
75153;HTU21D;63734;45.218;36.708;2023-02-23T15:18:51;-1.84;72.23
75153;HTU21D;63734;45.218;36.708;2023-02-23T15:21:22;-1.86;72.19
75153;HTU21D;63734;45.218;36.708;2023-02-23T15:24:08;-1.88;72.09
75153;HTU21D;63734;45.218;36.708;2023-02-23T15:26:37;-1.90;72.46
75153;HTU21D;63734;45.218;36.708;2023-02-23T15:31:38;-1.93;72.51
75153;HTU21D;63734;45.218;36.708;2023-02-23T15:34:19;-1.92;72.19
75153;HTU21D;63734;45.218;36.708;2023-02-23T15:37:09;-1.93;72.03
75153;HTU21D;63734;45.218;36.708;2023-02-23T15:39:45;-1.95;72.04
75153;HTU21D;63734;45.218;36.708;2023-02-23T15:42:17;-1.99;71.87
75153;HTU21D;63734;45.218;36.708;2023-02-23T15:44:44;-2.00;72.00
75153;HTU21D;63734;45.218;36.708;2023-02-23T15:47:20;-1.98;71.95
75153;HTU21D;63734;45.218;36.708;2023-02-23T15:49:47;-1.99;72.06
75153;HTU21D;63734;45.218;36.708;2023-02-23T15:52:19;-1.98;72.17
75153;HTU21D;63734;45.218;36.708;2023-02-23T15:55:01;-1.99;72.09
75153;HTU21D;63734;45.218;36.708;2023-02-23T15:57:33;-1.95;72.34
75153;HTU21D;63734;45.218;36.708;2023-02-23T16:00:16;-1.98;72.30
75153;HTU21D;63734;45.218;36.708;2023-02-23T16:02:47;-1.98;72.33
75153;HTU21D;63734;45.218;36.708;2023-02-23T16:05:21;-1.97;72.56
75153;HTU21D;63734;45.218;36.708;2023-02-23T16:08:01;-1.94;72.45
75153;HTU21D;63734;45.218;36.708;2023-02-23T16:10:40;-1.94;72.28
75153;HTU21D;63734;45.218;36.708;2023-02-23T16:13:11;-1.97;72.07
75153;HTU21D;63734;45.218;36.708;2023-02-23T16:15:39;-1.99;72.15
75153;HTU21D;63734;45.218;36.708;2023-02-23T16:18:10;-1.97;71.97
75153;HTU21D;63734;45.218;36.708;2023-02-23T16:20:39;-1.95;71.99
75153;HTU21D;63734;45.218;36.708;2023-02-23T16:23:29;-1.95;71.78
75153;HTU21D;63734;45.218;36.708;2023-02-23T16:25:59;-1.98;71.61
75153;HTU21D;63734;45.218;36.708;2023-02-23T16:28:28;-1.99;71.87
75153;HTU21D;63734;45.218;36.708;2023-02-23T16:31:04;-1.99;71.86
75153;HTU21D;63734;45.218;36.708;2023-02-23T16:33:44;-1.95;72.03
75153;HTU21D;63734;45.218;36.708;2023-02-23T16:36:22;-1.93;72.28
75153;HTU21D;63734;45.218;36.708;2023-02-23T16:38:58;-1.95;72.11
75153;HTU21D;63734;45.218;36.708;2023-02-23T16:41:27;-1.94;72.17
75153;HTU21D;63734;45.218;36.708;2023-02-23T16:43:57;-1.92;72.22
75153;HTU21D;63734;45.218;36.708;2023-02-23T16:46:28;-1.87;72.32
75153;HTU21D;63734;45.218;36.708;2023-02-23T16:48:55;-1.84;72.36
75153;HTU21D;63734;45.218;36.708;2023-02-23T16:51:30;-1.85;72.45
75153;HTU21D;63734;45.218;36.708;2023-02-23T16:53:59;-1.85;72.62
75153;HTU21D;63734;45.218;36.708;2023-02-23T16:56:25;-1.85;72.46
75153;HTU21D;63734;45.218;36.708;2023-02-23T16:58:57;-1.85;72.53
75153;HTU21D;63734;45.218;36.708;2023-02-23T17:01:25;-1.83;72.55
75153;HTU21D;63734;45.218;36.708;2023-02-23T17:03:51;-1.84;72.64
75153;HTU21D;63734;45.218;36.708;2023-02-23T17:06:20;-1.84;72.61
75153;HTU21D;63734;45.218;36.708;2023-02-23T17:08:46;-1.87;72.69
75153;HTU21D;63734;45.218;36.708;2023-02-23T17:11:12;-1.92;72.77
75153;HTU21D;63734;45.218;36.708;2023-02-23T17:13:38;-1.97;72.93
75153;HTU21D;63734;45.218;36.708;2023-02-23T17:16:06;-2.00;73.13
75153;HTU21D;63734;45.218;36.708;2023-02-23T17:18:36;-2.02;73.32
75153;HTU21D;63734;45.218;36.708;2023-02-23T17:21:08;-2.04;73.40
75153;HTU21D;63734;45.218;36.708;2023-02-23T17:23:39;-2.06;73.32
75153;HTU21D;63734;45.218;36.708;2023-02-23T17:26:18;-2.07;73.48
75153;HTU21D;63734;45.218;36.708;2023-02-23T17:28:45;-2.05;73.54
75153;HTU21D;63734;45.218;36.708;2023-02-23T17:31:11;-2.03;73.55
75153;HTU21D;63734;45.218;36.708;2023-02-23T17:33:38;-2.04;73.51
75153;HTU21D;63734;45.218;36.708;2023-02-23T17:36:08;-2.06;73.41
75153;HTU21D;63734;45.218;36.708;2023-02-23T17:38:34;-2.06;73.52
75153;HTU21D;63734;45.218;36.708;2023-02-23T17:41:01;-2.05;73.48
75153;HTU21D;63734;45.218;36.708;2023-02-23T17:43:29;-2.07;73.61
75153;HTU21D;63734;45.218;36.708;2023-02-23T17:45:56;-2.08;73.50
75153;HTU21D;63734;45.218;36.708;2023-02-23T17:48:25;-2.09;73.62
75153;HTU21D;63734;45.218;36.708;2023-02-23T17:51:00;-2.13;73.73
75153;HTU21D;63734;45.218;36.708;2023-02-23T17:53:29;-2.17;73.72
75153;HTU21D;63734;45.218;36.708;2023-02-23T17:55:56;-2.19;73.60
75153;HTU21D;63734;45.218;36.708;2023-02-23T17:58:25;-2.21;73.66
75153;HTU21D;63734;45.218;36.708;2023-02-23T18:00:57;-2.20;73.81
75153;HTU21D;63734;45.218;36.708;2023-02-23T18:03:25;-2.19;73.80
75153;HTU21D;63734;45.218;36.708;2023-02-23T18:06:14;-2.20;73.82
75153;HTU21D;63734;45.218;36.708;2023-02-23T18:08:45;-2.17;74.06
75153;HTU21D;63734;45.218;36.708;2023-02-23T18:11:12;-2.19;73.93
75153;HTU21D;63734;45.218;36.708;2023-02-23T18:13:41;-2.24;73.61
75153;HTU21D;63734;45.218;36.708;2023-02-23T18:16:09;-2.26;73.70
75153;HTU21D;63734;45.218;36.708;2023-02-23T18:18:39;-2.29;73.76